Time;durP1;ratioP1;P1;durP2;ratioP2;P2;SDS_P1;SDS_P2;PMS_P1;PMS_P2;Temp;Humidity;BMP_temperature;BMP_pressure;BME280_temperature;BME280_humidity;BME280_pressure;Samples;Min_cycle;Max_cycle;Signal;HPM_P1;HPM_P2
2023/08/17 00:02:00;;;;;;;5.55;1.83;;;16.90;83.80;;;;;;5064047;28;20651;-51
2023/08/17 00:04:27;;;;;;;5.22;2.17;;;16.90;83.70;;;;;;5067121;28;20051;-50
2023/08/17 00:06:54;;;;;;;7.60;1.98;;;16.90;83.70;;;;;;5073054;28;20457;-53
2023/08/17 00:09:24;;;;;;;3.75;1.98;;;16.90;84.10;;;;;;5075596;28;20039;-52
2023/08/17 00:11:52;;;;;;;6.55;1.58;;;16.90;84.10;;;;;;5074775;28;20406;-53
2023/08/17 00:14:21;;;;;;;11.82;3.45;;;16.90;83.90;;;;;;5071962;28;20456;-51
2023/08/17 00:16:52;;;;;;;5.70;2.17;;;16.90;84.10;;;;;;5057657;28;20048;-50
2023/08/17 00:19:19;;;;;;;8.07;1.73;;;16.90;84.00;;;;;;5066334;28;20037;-49
2023/08/17 00:21:51;;;;;;;6.10;1.80;;;16.90;83.70;;;;;;5062184;28;20454;-50
2023/08/17 00:24:18;;;;;;;3.85;1.77;;;16.90;83.50;;;;;;5070833;28;20043;-51
2023/08/17 00:26:44;;;;;;;8.07;2.17;;;17.00;83.20;;;;;;5063609;28;20059;-50
2023/08/17 00:29:10;;;;;;;6.53;2.13;;;17.00;83.10;;;;;;5054281;28;20041;-52
2023/08/17 00:31:37;;;;;;;8.65;2.25;;;16.90;83.00;;;;;;5068028;28;20153;-52
2023/08/17 00:34:04;;;;;;;7.35;2.42;;;16.90;83.20;;;;;;5058141;28;20031;-54
2023/08/17 00:36:31;;;;;;;8.02;2.30;;;16.90;83.50;;;;;;5073433;28;20031;-50
2023/08/17 00:38:57;;;;;;;4.28;1.77;;;16.90;83.20;;;;;;5074835;28;20523;-52
2023/08/17 00:41:25;;;;;;;7.32;1.83;;;16.90;83.50;;;;;;5067569;28;20033;-52
2023/08/17 00:43:51;;;;;;;4.15;1.83;;;17.00;83.80;;;;;;5065649;28;20020;-51
2023/08/17 00:46:22;;;;;;;5.07;1.77;;;17.00;84.00;;;;;;5071381;28;20353;-53
2023/08/17 00:48:48;;;;;;;5.65;2.20;;;16.90;84.30;;;;;;5072797;28;20025;-49
2023/08/17 00:51:20;;;;;;;5.72;2.08;;;16.90;84.50;;;;;;5070216;28;20021;-52
2023/08/17 00:53:47;;;;;;;7.28;2.00;;;16.90;84.30;;;;;;5073333;28;20464;-50
2023/08/17 00:56:14;;;;;;;10.95;2.45;;;16.90;83.90;;;;;;5074626;28;20036;-50
2023/08/17 00:58:41;;;;;;;7.47;2.13;;;16.90;83.90;;;;;;5074227;28;20043;-54
2023/08/17 01:01:08;;;;;;;4.50;2.05;;;16.90;84.20;;;;;;5072234;28;20036;-56
2023/08/17 01:03:37;;;;;;;3.97;1.80;;;16.90;84.10;;;;;;5068439;28;20426;-51
2023/08/17 01:06:04;;;;;;;4.72;2.08;;;16.90;84.20;;;;;;5073793;28;20067;-52
2023/08/17 01:08:31;;;;;;;5.50;1.77;;;16.90;84.50;;;;;;5073424;28;20574;-51
2023/08/17 01:11:17;;;;;;;6.57;2.05;;;16.90;84.90;;;;;;5074253;28;20036;-53
2023/08/17 01:13:53;;;;;;;4.63;1.55;;;16.90;85.00;;;;;;5054515;28;20433;-53
2023/08/17 01:16:34;;;;;;;5.13;2.10;;;16.90;85.40;;;;;;5063666;28;20170;-49
2023/08/17 01:19:06;;;;;;;5.68;1.92;;;16.90;85.30;;;;;;5072687;28;20013;-54
2023/08/17 01:21:42;;;;;;;7.07;2.05;;;16.90;85.40;;;;;;5072750;28;20130;-50
2023/08/17 01:24:11;;;;;;;7.28;2.05;;;16.90;85.50;;;;;;5055394;28;20101;-53
2023/08/17 01:26:38;;;;;;;;;;;16.90;85.60;;;;;;5073422;28;20472;-53
2023/08/17 01:29:05;;;;;;;8.52;2.45;;;16.90;85.40;;;;;;5073737;28;19908;-53
2023/08/17 01:31:42;;;;;;;7.20;2.17;;;16.90;85.60;;;;;;5070467;28;20032;-51
2023/08/17 01:34:18;;;;;;;10.85;2.10;;;16.90;86.00;;;;;;5053257;28;20032;-52
2023/08/17 01:36:53;;;;;;;6.57;1.70;;;16.90;86.20;;;;;;5070526;28;20032;-52
2023/08/17 01:39:27;;;;;;;5.72;2.17;;;16.90;86.20;;;;;;5070304;28;20040;-54
2023/08/17 01:41:56;;;;;;;6.85;2.15;;;16.90;86.50;;;;;;5073821;28;20037;-52
2023/08/17 01:44:28;;;;;;;9.68;2.40;;;16.90;86.70;;;;;;5054868;28;20056;-51
2023/08/17 01:46:55;;;;;;;6.47;2.53;;;16.90;86.80;;;;;;5059965;28;20033;-55
2023/08/17 01:49:21;;;;;;;5.15;2.15;;;16.90;86.90;;;;;;5064861;28;20377;-50
2023/08/17 01:51:48;;;;;;;6.85;2.30;;;16.90;86.50;;;;;;5072388;28;20028;-49
2023/08/17 01:54:15;;;;;;;7.25;2.75;;;17.00;86.30;;;;;;5072577;28;20056;-50
2023/08/17 01:56:42;;;;;;;5.28;2.10;;;16.90;86.00;;;;;;5072028;28;20028;-50
2023/08/17 01:59:11;;;;;;;6.65;1.88;;;16.90;86.30;;;;;;5072512;28;20099;-50
2023/08/17 02:01:40;;;;;;;4.20;2.00;;;16.90;86.10;;;;;;5072231;28;20021;-49
2023/08/17 02:04:06;;;;;;;7.00;2.15;;;17.00;86.10;;;;;;5051657;28;20512;-52
2023/08/17 02:06:33;;;;;;;6.50;1.85;;;17.00;86.10;;;;;;5053083;28;20029;-50
2023/08/17 02:09:02;;;;;;;7.40;2.28;;;17.00;86.00;;;;;;5059030;28;20048;-54
2023/08/17 02:11:29;;;;;;;6.30;1.93;;;16.90;86.20;;;;;;5071746;28;20036;-51
2023/08/17 02:13:56;;;;;;;12.63;2.75;;;16.90;86.00;;;;;;5072388;28;20114;-50
2023/08/17 02:16:22;;;;;;;4.95;1.85;;;16.90;85.60;;;;;;5070889;28;20032;-52
2023/08/17 02:18:51;;;;;;;5.97;1.85;;;16.90;85.60;;;;;;5071303;28;20039;-51
2023/08/17 02:21:18;;;;;;;9.85;2.13;;;16.90;85.10;;;;;;5055035;28;20520;-50
2023/08/17 02:23:45;;;;;;;6.25;2.13;;;16.90;85.10;;;;;;5072817;28;20028;-51
2023/08/17 02:26:12;;;;;;;5.22;1.42;;;16.90;85.30;;;;;;5053489;28;20033;-51
2023/08/17 02:28:39;;;;;;;3.83;1.83;;;16.90;85.10;;;;;;5071074;28;20032;-52
2023/08/17 02:31:06;;;;;;;7.35;1.88;;;16.90;85.50;;;;;;5063132;28;20045;-51
2023/08/17 02:33:33;;;;;;;5.07;2.10;;;16.90;85.70;;;;;;5072095;28;20017;-50
2023/08/17 02:36:01;;;;;;;4.93;1.80;;;16.90;86.20;;;;;;5071358;28;20029;-50
2023/08/17 02:38:30;;;;;;;5.78;2.10;;;17.00;86.20;;;;;;5072049;28;20077;-50
2023/08/17 02:40:57;;;;;;;8.90;2.22;;;16.90;86.30;;;;;;5072357;28;20441;-51
2023/08/17 02:43:23;;;;;;;5.43;2.10;;;17.00;86.40;;;;;;5054114;28;20426;-52
2023/08/17 02:45:50;;;;;;;4.50;1.88;;;16.90;86.20;;;;;;5070654;28;20055;-51
2023/08/17 02:48:22;;;;;;;7.38;1.92;;;16.90;86.10;;;;;;5054377;28;20041;-52
2023/08/17 02:50:49;;;;;;;6.75;2.08;;;16.90;85.90;;;;;;5072475;28;20032;-55
2023/08/17 02:53:16;;;;;;;8.77;2.08;;;16.90;85.90;;;;;;5054870;28;20028;-52
2023/08/17 02:55:43;;;;;;;7.07;2.65;;;16.90;85.20;;;;;;5065257;28;20030;-50
2023/08/17 02:58:10;;;;;;;3.78;1.58;;;16.90;84.70;;;;;;5064405;28;20025;-54
2023/08/17 03:00:37;;;;;;;9.55;2.80;;;16.90;84.70;;;;;;5071556;28;20109;-52
2023/08/17 03:03:03;;;;;;;5.13;1.60;;;16.90;85.20;;;;;;5054687;28;20372;-51
2023/08/17 03:05:33;;;;;;;7.65;1.90;;;16.90;85.20;;;;;;5065417;28;20104;-54
2023/08/17 03:08:00;;;;;;;4.40;1.70;;;16.90;85.40;;;;;;5034718;28;20322;-50
2023/08/17 03:10:31;;;;;;;5.55;1.60;;;16.90;85.30;;;;;;5066655;28;20431;-50
2023/08/17 03:12:59;;;;;;;8.95;2.00;;;16.90;85.40;;;;;;5071818;28;20028;-50
2023/08/17 03:15:26;;;;;;;4.80;1.80;;;16.80;85.30;;;;;;5053487;28;20024;-51
2023/08/17 03:17:53;;;;;;;5.35;1.52;;;16.80;85.10;;;;;;5069193;28;20029;-50
2023/08/17 03:20:19;;;;;;;7.88;2.13;;;16.80;85.00;;;;;;5072173;28;20024;-51
2023/08/17 03:22:46;;;;;;;5.97;1.70;;;16.80;84.70;;;;;;5070158;28;20028;-53
2023/08/17 03:25:13;;;;;;;4.28;1.65;;;16.70;85.00;;;;;;5066946;28;20028;-53
2023/08/17 03:27:40;;;;;;;7.53;2.15;;;16.70;85.50;;;;;;5052082;28;20063;-49
2023/08/17 03:30:07;;;;;;;7.00;1.98;;;16.70;85.90;;;;;;5051812;28;20040;-53
2023/08/17 03:32:34;;;;;;;4.60;1.60;;;16.60;86.00;;;;;;5072030;28;20028;-51
2023/08/17 03:35:01;;;;;;;8.00;2.00;;;16.60;85.70;;;;;;5071271;28;20357;-53
2023/08/17 03:37:28;;;;;;;6.60;1.92;;;16.60;85.90;;;;;;5071018;28;20452;-52
2023/08/17 03:39:55;;;;;;;7.63;1.90;;;16.60;86.40;;;;;;5070258;28;20093;-53
2023/08/17 03:42:22;;;;;;;8.48;1.90;;;16.50;86.50;;;;;;5055416;28;20037;-50
2023/08/17 03:44:52;;;;;;;5.15;1.67;;;16.50;86.50;;;;;;5058793;28;20043;-55
2023/08/17 03:47:17;;;;;;;;;;;16.50;86.50;;;;;;5075072;28;20457;-50
2023/08/17 03:49:43;;;;;;;5.85;1.70;;;16.40;86.40;;;;;;5075230;28;19915;-53
2023/08/17 03:52:10;;;;;;;6.57;1.40;;;16.40;86.00;;;;;;5067126;28;20043;-50
2023/08/17 03:54:37;;;;;;;5.57;1.50;;;16.40;86.10;;;;;;5070303;28;20449;-53
2023/08/17 03:57:03;;;;;;;6.35;1.52;;;16.40;86.20;;;;;;5071369;28;20033;-52
2023/08/17 03:59:30;;;;;;;6.90;2.40;;;16.40;86.40;;;;;;5055691;28;20094;-53
2023/08/17 04:01:58;;;;;;;4.68;1.58;;;16.40;86.50;;;;;;5047691;28;20068;-54
2023/08/17 04:04:25;;;;;;;7.60;2.60;;;16.30;86.80;;;;;;5055914;28;20032;-56
2023/08/17 04:06:52;;;;;;;4.88;1.75;;;16.30;87.40;;;;;;5042354;28;20118;-50
2023/08/17 04:09:19;;;;;;;6.45;1.70;;;16.30;87.70;;;;;;5063627;28;20032;-50
2023/08/17 04:11:45;;;;;;;11.02;2.17;;;16.40;87.80;;;;;;5055220;28;20063;-53
2023/08/17 04:14:12;;;;;;;8.57;2.28;;;16.40;87.80;;;;;;5055489;28;20444;-54
2023/08/17 04:16:41;;;;;;;8.80;2.58;;;16.40;87.90;;;;;;5073459;28;20020;-49
2023/08/17 04:19:07;;;;;;;5.05;1.77;;;16.40;87.80;;;;;;5075475;28;20021;-54
2023/08/17 04:21:34;;;;;;;4.07;1.98;;;16.40;87.90;;;;;;5048896;28;20339;-54
2023/08/17 04:24:01;;;;;;;4.85;1.75;;;16.40;87.90;;;;;;5075611;28;20031;-53
2023/08/17 04:26:26;;;;;;;8.00;2.15;;;16.40;87.40;;;;;;5075343;28;20024;-51
2023/08/17 04:28:52;;;;;;;13.07;2.75;;;16.40;87.30;;;;;;5074240;28;20070;-52
2023/08/17 04:31:18;;;;;;;6.28;1.73;;;16.40;87.20;;;;;;5053352;28;20024;-53
2023/08/17 04:33:44;;;;;;;10.30;2.38;;;16.40;87.10;;;;;;5074088;28;20408;-53
2023/08/17 04:36:12;;;;;;;4.15;1.33;;;16.40;87.00;;;;;;5073257;28;20020;-49
2023/08/17 04:38:37;;;;;;;7.72;2.25;;;16.40;86.90;;;;;;5054724;28;20091;-50
2023/08/17 04:41:04;;;;;;;5.18;1.25;;;16.40;87.10;;;;;;5057134;28;20028;-53
2023/08/17 04:43:31;;;;;;;5.43;2.08;;;16.30;86.80;;;;;;5074279;28;20055;-50
2023/08/17 04:45:58;;;;;;;4.65;1.40;;;16.30;86.90;;;;;;5068642;28;20453;-50
2023/08/17 04:48:27;;;;;;;8.00;1.63;;;16.30;86.70;;;;;;5046496;28;20067;-52
2023/08/17 04:50:53;;;;;;;5.55;1.40;;;16.30;86.70;;;;;;5067517;28;20056;-49
2023/08/17 04:53:20;;;;;;;7.47;1.52;;;16.30;86.60;;;;;;5071541;28;20062;-52
2023/08/17 04:55:49;;;;;;;9.48;2.22;;;16.30;86.50;;;;;;5071501;28;20036;-50
2023/08/17 04:58:18;;;;;;;4.60;1.65;;;16.20;86.40;;;;;;5074080;28;20056;-52
2023/08/17 05:00:48;;;;;;;5.15;1.95;;;16.20;86.60;;;;;;5072821;28;20104;-52
2023/08/17 05:03:15;;;;;;;3.60;1.50;;;16.20;86.90;;;;;;5073493;28;20048;-51
2023/08/17 05:05:41;;;;;;;2.85;1.38;;;16.20;86.90;;;;;;5053132;28;20029;-52
2023/08/17 05:08:08;;;;;;;7.22;1.70;;;16.20;87.00;;;;;;5054502;28;20028;-51
2023/08/17 05:10:35;;;;;;;4.78;1.35;;;16.20;86.80;;;;;;5056640;28;20492;-50
2023/08/17 05:13:04;;;;;;;6.13;1.60;;;16.20;86.70;;;;;;5073470;28;20314;-49
2023/08/17 05:15:31;;;;;;;4.20;1.50;;;16.20;86.50;;;;;;5073323;28;20048;-49
2023/08/17 05:18:01;;;;;;;3.95;1.55;;;16.30;85.70;;;;;;5073407;28;20029;-51
2023/08/17 05:20:27;;;;;;;3.85;1.58;;;16.30;84.90;;;;;;5074593;28;20388;-51
2023/08/17 05:22:56;;;;;;;7.22;1.90;;;16.40;84.90;;;;;;5063807;28;20056;-51
2023/08/17 05:25:25;;;;;;;4.30;1.17;;;16.40;84.80;;;;;;5069934;28;20759;-49
2023/08/17 05:27:52;;;;;;;2.92;1.27;;;16.40;85.00;;;;;;5060639;28;20025;-52
2023/08/17 05:30:21;;;;;;;3.88;1.75;;;16.40;85.20;;;;;;5055258;28;20029;-55
2023/08/17 05:32:48;;;;;;;6.97;1.42;;;16.50;84.70;;;;;;5073139;28;20452;-51
2023/08/17 05:35:15;;;;;;;4.25;1.55;;;16.50;84.50;;;;;;5073455;28;20033;-52
2023/08/17 05:37:44;;;;;;;3.40;1.00;;;16.50;84.30;;;;;;5072516;28;20031;-51
2023/08/17 05:40:11;;;;;;;4.07;1.00;;;16.60;84.20;;;;;;5072907;28;20040;-50
2023/08/17 05:42:37;;;;;;;4.38;1.35;;;16.60;83.90;;;;;;5072895;28;20066;-52
2023/08/17 05:45:05;;;;;;;4.57;2.00;;;16.70;83.70;;;;;;5072820;28;20029;-56
2023/08/17 05:47:36;;;;;;;4.47;1.67;;;16.70;83.60;;;;;;5072789;28;20037;-54
2023/08/17 05:50:02;;;;;;;7.30;1.40;;;16.70;83.70;;;;;;5071405;28;20074;-51
2023/08/17 05:52:29;;;;;;;3.03;1.00;;;16.70;83.10;;;;;;5055813;28;20032;-54
2023/08/17 05:54:56;;;;;;;6.60;1.20;;;16.70;83.20;;;;;;5073490;28;20028;-51
2023/08/17 05:57:23;;;;;;;4.95;1.50;;;16.70;82.90;;;;;;5072675;28;20050;-52
2023/08/17 05:59:49;;;;;;;3.97;1.33;;;16.80;82.70;;;;;;5070824;28;20035;-53
2023/08/17 06:02:15;;;;;;;6.00;1.48;;;16.90;82.50;;;;;;5053675;28;20025;-53
2023/08/17 06:04:41;;;;;;;3.75;1.15;;;16.80;82.50;;;;;;5054077;28;20043;-52
2023/08/17 06:07:07;;;;;;;4.47;1.20;;;16.80;82.60;;;;;;5065437;28;20021;-53
2023/08/17 06:09:34;;;;;;;1.92;0.90;;;16.80;82.80;;;;;;5064856;28;20468;-56
2023/08/17 06:12:01;;;;;;;3.75;1.48;;;16.80;82.40;;;;;;5071797;28;20064;-53
2023/08/17 06:14:28;;;;;;;4.20;0.95;;;16.80;82.20;;;;;;5054007;28;20021;-51
2023/08/17 06:16:58;;;;;;;4.10;1.20;;;16.80;82.20;;;;;;5068705;28;20461;-52
2023/08/17 06:19:25;;;;;;;3.88;1.20;;;16.80;82.70;;;;;;5073226;28;20453;-55
2023/08/17 06:21:52;;;;;;;5.75;1.40;;;16.80;82.70;;;;;;5054975;28;20044;-54
2023/08/17 06:24:20;;;;;;;3.38;1.00;;;16.80;83.20;;;;;;5071002;28;20044;-51
2023/08/17 06:26:45;;;;;;;6.18;1.20;;;16.80;83.10;;;;;;5071701;28;20032;-50
2023/08/17 06:29:11;;;;;;;1.88;0.95;;;16.90;83.30;;;;;;5072084;28;20028;-54
2023/08/17 06:31:38;;;;;;;4.18;1.50;;;16.90;82.10;;;;;;5058481;28;20033;-54
2023/08/17 06:34:04;;;;;;;3.65;1.05;;;16.90;81.50;;;;;;5072757;28;20088;-52
2023/08/17 06:36:31;;;;;;;1.98;0.90;;;16.80;81.40;;;;;;5071532;28;20028;-52
2023/08/17 06:38:59;;;;;;;3.08;1.10;;;16.90;81.40;;;;;;5071535;28;20080;-55
2023/08/17 06:41:26;;;;;;;4.60;1.60;;;16.90;81.50;;;;;;5072723;28;20025;-50
2023/08/17 06:43:53;;;;;;;4.88;1.70;;;16.90;81.50;;;;;;5054932;28;20089;-52
2023/08/17 06:46:20;;;;;;;4.22;1.40;;;16.90;80.70;;;;;;5060888;28;20056;-52
2023/08/17 06:48:55;;;;;;;5.75;1.38;;;16.90;80.70;;;;;;5053193;28;20388;-51
2023/08/17 06:51:21;;;;;;;3.75;1.30;;;17.00;80.60;;;;;;5047117;28;20037;-52
2023/08/17 06:53:48;;;;;;;2.80;0.90;;;17.00;80.80;;;;;;5058706;28;20047;-50
2023/08/17 06:56:15;;;;;;;1.77;0.85;;;17.00;81.30;;;;;;5063218;28;20035;-51
2023/08/17 06:58:42;;;;;;;2.92;0.80;;;17.00;80.80;;;;;;5071443;28;20035;-51
2023/08/17 07:01:08;;;;;;;3.65;1.10;;;17.00;81.40;;;;;;5067812;28;20017;-50
2023/08/17 07:03:41;;;;;;;1.88;0.85;;;17.00;81.10;;;;;;5070353;28;20029;-50
2023/08/17 07:06:11;;;;;;;1.63;0.90;;;16.90;80.80;;;;;;5071697;28;20044;-52
2023/08/17 07:08:39;;;;;;;4.57;1.25;;;16.90;81.10;;;;;;5071210;28;20111;-52
2023/08/17 07:11:06;;;;;;;2.38;1.30;;;16.90;81.50;;;;;;5072314;28;20098;-51
2023/08/17 07:13:33;;;;;;;3.20;0.90;;;16.90;81.80;;;;;;5072108;28;20029;-50
2023/08/17 07:16:00;;;;;;;6.72;1.50;;;16.90;82.30;;;;;;5063953;28;20497;-50
2023/08/17 07:18:25;;;;;;;2.80;0.90;;;16.90;82.00;;;;;;5062679;28;20084;-51
2023/08/17 07:20:52;;;;;;;3.33;1.60;;;16.90;81.70;;;;;;5072153;28;20103;-51
2023/08/17 07:23:19;;;;;;;2.50;0.80;;;16.90;81.60;;;;;;5070167;28;20028;-49
2023/08/17 07:25:46;;;;;;;3.15;1.00;;;16.90;82.10;;;;;;5072638;28;20028;-51
2023/08/17 07:28:14;;;;;;;4.25;1.13;;;16.90;82.00;;;;;;5071520;28;20056;-50
2023/08/17 07:30:43;;;;;;;3.53;1.40;;;16.90;82.70;;;;;;5071383;28;20036;-51
2023/08/17 07:33:10;;;;;;;5.13;1.57;;;16.90;82.80;;;;;;5054039;28;20040;-51
2023/08/17 07:35:37;;;;;;;4.72;1.20;;;16.90;82.70;;;;;;5056128;28;20082;-53
2023/08/17 07:38:03;;;;;;;4.82;1.13;;;16.90;82.40;;;;;;5054195;28;20132;-50
2023/08/17 07:40:30;;;;;;;3.85;1.08;;;16.90;82.60;;;;;;5072059;28;20124;-50
2023/08/17 07:42:57;;;;;;;2.83;1.00;;;16.90;82.30;;;;;;5065194;28;20025;-52
2023/08/17 07:45:23;;;;;;;5.35;1.23;;;16.90;82.30;;;;;;5067864;28;20078;-50
2023/08/17 07:47:52;;;;;;;2.67;0.80;;;16.90;82.30;;;;;;5052199;28;20035;-51
2023/08/17 07:50:18;;;;;;;3.38;1.00;;;16.90;82.30;;;;;;5064198;28;20036;-51
2023/08/17 07:52:45;;;;;;;4.75;1.58;;;16.90;82.20;;;;;;5071722;28;20038;-51
2023/08/17 07:55:14;;;;;;;4.40;0.93;;;16.90;82.20;;;;;;5071261;28;20052;-52
2023/08/17 07:57:41;;;;;;;3.33;1.02;;;16.90;82.30;;;;;;5068293;28;20028;-49
2023/08/17 08:00:08;;;;;;;5.35;1.55;;;17.00;82.70;;;;;;5069524;28;20032;-50
2023/08/17 08:02:34;;;;;;;4.68;1.95;;;17.00;82.50;;;;;;5047686;28;20028;-49
2023/08/17 08:05:01;;;;;;;4.13;1.55;;;17.00;82.40;;;;;;5070944;28;20062;-51
2023/08/17 08:07:28;;;;;;;5.68;1.25;;;17.00;82.50;;;;;;5052877;28;20079;-50
2023/08/17 08:09:55;;;;;;;3.78;1.20;;;17.00;83.00;;;;;;5071646;28;20029;-49
2023/08/17 08:12:22;;;;;;;3.78;1.25;;;17.10;83.10;;;;;;5068465;28;20067;-52
2023/08/17 08:14:50;;;;;;;3.83;1.38;;;17.20;83.50;;;;;;5069924;28;20024;-51
2023/08/17 08:17:19;;;;;;;5.63;1.25;;;17.30;83.50;;;;;;5053289;28;20025;-49
2023/08/17 08:19:47;;;;;;;4.72;1.30;;;17.30;83.50;;;;;;5053640;28;20025;-52
2023/08/17 08:22:13;;;;;;;8.40;1.33;;;17.20;83.40;;;;;;5051720;28;20054;-51
2023/08/17 08:24:41;;;;;;;5.45;1.35;;;17.30;83.50;;;;;;5058841;28;20068;-51
2023/08/17 08:27:07;;;;;;;2.72;1.20;;;17.20;83.90;;;;;;5054046;28;20029;-51
2023/08/17 08:29:34;;;;;;;2.70;0.98;;;17.10;84.00;;;;;;5074709;28;20438;-52
2023/08/17 08:32:02;;;;;;;6.15;1.60;;;17.10;84.10;;;;;;5048832;28;20049;-49
2023/08/17 08:34:29;;;;;;;6.97;1.30;;;17.20;84.80;;;;;;5070934;28;20637;-49
2023/08/17 08:36:56;;;;;;;3.58;1.60;;;17.20;84.30;;;;;;5056851;28;20035;-51
2023/08/17 08:39:29;;;;;;;4.50;1.92;;;17.20;84.30;;;;;;5073291;28;20045;-50
2023/08/17 08:41:56;;;;;;;3.97;1.20;;;17.30;84.10;;;;;;5056557;28;20082;-53
2023/08/17 08:44:25;;;;;;;5.80;1.67;;;17.40;84.20;;;;;;5073669;28;20449;-51
2023/08/17 08:46:58;;;;;;;4.15;1.50;;;17.50;84.60;;;;;;5056424;28;20120;-50
2023/08/17 08:49:27;;;;;;;7.15;2.10;;;17.60;84.00;;;;;;5073295;28;20036;-52
2023/08/17 08:51:59;;;;;;;7.30;1.65;;;17.70;83.40;;;;;;5046345;28;20037;-53
2023/08/17 08:54:26;;;;;;;4.72;1.35;;;17.80;83.20;;;;;;5068387;28;20087;-52
2023/08/17 08:56:59;;;;;;;4.50;1.55;;;17.90;83.60;;;;;;5066813;28;20037;-50
2023/08/17 08:59:27;;;;;;;6.00;1.70;;;17.90;82.80;;;;;;5056223;28;20025;-55
2023/08/17 09:01:56;;;;;;;3.53;1.30;;;17.90;83.10;;;;;;5071012;28;20051;-49
2023/08/17 09:04:23;;;;;;;5.15;2.08;;;17.80;83.50;;;;;;5055844;28;20038;-51
2023/08/17 09:06:54;;;;;;;7.68;2.08;;;17.90;83.90;;;;;;5073590;28;20033;-50
2023/08/17 09:09:23;;;;;;;2.83;1.65;;;17.90;84.00;;;;;;5054166;28;20111;-51
2023/08/17 09:11:50;;;;;;;6.60;2.00;;;17.80;83.50;;;;;;5072809;28;20032;-52
2023/08/17 09:14:17;;;;;;;4.22;1.98;;;17.80;83.50;;;;;;5074357;28;20044;-49
2023/08/17 09:16:44;;;;;;;4.03;1.70;;;17.90;83.80;;;;;;5072855;28;20024;-54
2023/08/17 09:19:11;;;;;;;4.78;1.40;;;17.90;83.30;;;;;;5073535;28;20089;-53
2023/08/17 09:21:38;;;;;;;5.78;2.25;;;18.00;83.50;;;;;;5071948;28;20369;-53
2023/08/17 09:24:07;;;;;;;3.63;1.85;;;18.00;83.10;;;;;;5073916;28;20364;-49
2023/08/17 09:26:34;;;;;;;5.00;2.22;;;18.00;83.20;;;;;;5072602;28;20037;-53
2023/08/17 09:29:15;;;;;;;7.40;1.83;;;18.00;83.60;;;;;;5054223;28;20028;-50
2023/08/17 09:31:41;;;;;;;5.32;1.80;;;18.00;83.70;;;;;;5058437;28;20029;-49
2023/08/17 09:34:08;;;;;;;8.27;1.88;;;18.00;83.50;;;;;;5074998;28;20035;-51
2023/08/17 09:36:36;;;;;;;6.32;1.60;;;18.10;84.10;;;;;;5056225;28;20024;-51
2023/08/17 09:39:03;;;;;;;6.05;1.95;;;18.10;84.10;;;;;;5052802;28;20049;-50
2023/08/17 09:41:30;;;;;;;3.15;1.55;;;18.00;84.00;;;;;;5071985;28;20420;-54
2023/08/17 09:43:59;;;;;;;7.50;2.90;;;17.90;83.80;;;;;;5054284;28;20036;-51
2023/08/17 09:46:26;;;;;;;3.33;1.42;;;17.80;84.30;;;;;;5047031;28;20036;-49
2023/08/17 09:48:53;;;;;;;6.43;3.20;;;17.70;84.60;;;;;;5054595;28;20386;-49
2023/08/17 09:51:23;;;;;;;7.60;2.25;;;17.70;84.70;;;;;;5056878;28;20075;-54
2023/08/17 09:53:56;;;;;;;4.88;2.35;;;17.60;84.80;;;;;;5056971;28;20035;-51
2023/08/17 09:56:26;;;;;;;7.88;2.75;;;17.60;85.40;;;;;;5070621;28;20033;-51
2023/08/17 09:58:52;;;;;;;4.78;2.75;;;17.70;85.20;;;;;;5071983;28;20335;-54
2023/08/17 10:01:19;;;;;;;10.73;3.03;;;17.70;85.40;;;;;;5047537;28;20079;-50
2023/08/17 10:03:50;;;;;;;5.07;2.22;;;17.80;85.70;;;;;;5062493;28;20074;-49
2023/08/17 10:06:22;;;;;;;6.35;2.63;;;17.80;85.70;;;;;;5073306;28;20041;-53
2023/08/17 10:08:54;;;;;;;7.53;2.08;;;17.90;85.70;;;;;;5072146;28;20029;-51
2023/08/17 10:11:23;;;;;;;6.10;2.65;;;18.00;85.70;;;;;;5068289;28;20032;-51
2023/08/17 10:14:02;;;;;;;6.90;2.17;;;18.20;85.60;;;;;;5073795;28;20024;-54
2023/08/17 10:16:44;;;;;;;6.25;2.72;;;18.30;85.00;;;;;;5053375;28;20025;-53
2023/08/17 10:19:23;;;;;;;4.82;2.50;;;18.50;84.80;;;;;;5072502;28;20081;-54
2023/08/17 10:22:10;;;;;;;8.07;3.33;;;18.80;84.30;;;;;;5070517;28;20023;-53
2023/08/17 10:24:41;;;;;;;8.43;3.88;;;19.00;83.40;;;;;;5046872;28;20021;-53
2023/08/17 10:27:10;;;;;;;5.72;3.83;;;19.00;82.90;;;;;;5044289;28;20024;-54
2023/08/17 10:29:38;;;;;;;7.70;5.60;;;19.00;82.30;;;;;;5072942;28;20067;-52
2023/08/17 10:32:09;;;;;;;8.55;5.65;;;19.10;82.50;;;;;;5070649;28;20047;-51
2023/08/17 10:34:36;;;;;;;10.95;4.25;;;19.20;82.40;;;;;;5060282;28;20028;-53
2023/08/17 10:37:03;;;;;;;10.40;9.02;;;19.30;81.70;;;;;;5072522;28;20029;-54
2023/08/17 10:39:30;;;;;;;5.80;5.18;;;19.20;81.20;;;;;;5053855;28;20046;-50
2023/08/17 10:41:58;;;;;;;11.85;9.68;;;19.30;82.30;;;;;;5051729;28;20033;-51
2023/08/17 10:44:51;;;;;;;5.80;3.28;;;19.30;82.70;;;;;;5070946;28;20117;-50
2023/08/17 10:47:36;;;;;;;6.38;2.58;;;19.30;81.30;;;;;;5048468;28;20032;-51
2023/08/17 10:50:33;;;;;;;6.63;3.90;;;19.20;81.60;;;;;;5072724;28;20437;-51
2023/08/17 10:53:17;;;;;;;7.50;2.92;;;19.10;81.70;;;;;;5049775;28;20484;-51
2023/08/17 10:55:49;;;;;;;8.55;5.15;;;19.20;81.60;;;;;;5054251;28;20032;-53
2023/08/17 10:58:16;;;;;;;9.48;6.57;;;19.30;82.60;;;;;;5052452;28;20044;-53
2023/08/17 11:00:45;;;;;;;9.43;5.68;;;19.30;82.00;;;;;;5057205;28;20115;-52
2023/08/17 11:03:20;;;;;;;9.63;5.50;;;19.40;81.30;;;;;;5067678;28;20107;-51
2023/08/17 11:05:55;;;;;;;5.60;3.20;;;19.50;81.40;;;;;;5071714;28;20032;-54
2023/08/17 11:08:50;;;;;;;7.22;4.05;;;19.60;81.50;;;;;;5071558;28;20718;-53
2023/08/17 11:11:20;;;;;;;8.88;3.75;;;19.60;81.90;;;;;;5070997;28;20028;-56
2023/08/17 11:13:48;;;;;;;5.88;2.97;;;19.60;81.50;;;;;;5069989;28;20078;-53
2023/08/17 11:16:16;;;;;;;4.68;3.30;;;19.80;81.40;;;;;;5057997;28;20032;-50
2023/08/17 11:18:44;;;;;;;7.90;4.50;;;19.70;81.10;;;;;;5072613;28;20366;-50
2023/08/17 11:21:11;;;;;;;9.63;4.80;;;19.60;81.10;;;;;;5071082;28;20021;-50
2023/08/17 11:23:40;;;;;;;5.07;3.15;;;19.60;81.10;;;;;;5070774;28;20025;-54
2023/08/17 11:26:07;;;;;;;6.93;4.55;;;19.40;80.60;;;;;;5071126;28;20494;-54
2023/08/17 11:28:44;;;;;;;7.85;4.07;;;19.40;81.00;;;;;;5070317;28;20115;-54
2023/08/17 11:31:11;;;;;;;9.77;5.72;;;19.30;81.80;;;;;;5046899;28;20025;-54
2023/08/17 11:33:39;;;;;;;9.68;5.82;;;19.40;81.90;;;;;;5066439;28;20420;-51
2023/08/17 11:36:07;;;;;;;6.75;3.83;;;19.30;82.60;;;;;;5071647;28;20031;-51
2023/08/17 11:38:35;;;;;;;7.40;3.92;;;19.30;81.60;;;;;;5069911;28;20047;-55
2023/08/17 11:41:03;;;;;;;8.77;5.10;;;19.20;82.50;;;;;;5053534;28;20090;-50
2023/08/17 11:43:32;;;;;;;10.25;4.75;;;19.10;82.60;;;;;;5070058;28;20040;-55
2023/08/17 11:46:03;;;;;;;5.87;4.60;;;18.90;83.20;;;;;;5049011;28;20071;-50
2023/08/17 11:48:34;;;;;;;8.88;5.65;;;18.90;83.70;;;;;;5070920;28;20103;-51
2023/08/17 11:51:00;;;;;;;15.98;7.13;;;18.90;84.40;;;;;;5071846;28;20028;-54
2023/08/17 11:53:38;;;;;;;9.18;6.90;;;19.10;84.10;;;;;;5053053;28;20763;-51
2023/08/17 11:56:08;;;;;;;9.00;6.20;;;19.50;83.20;;;;;;5070907;28;20017;-51
2023/08/17 11:58:42;;;;;;;7.78;4.95;;;20.00;83.40;;;;;;5057972;28;20033;-51
2023/08/17 12:01:15;;;;;;;8.82;5.20;;;20.40;82.40;;;;;;5063072;28;20047;-51
2023/08/17 12:03:44;;;;;;;6.65;4.50;;;20.70;80.10;;;;;;5041564;28;20315;-50
2023/08/17 12:06:14;;;;;;;7.85;3.88;;;21.00;81.90;;;;;;5075595;28;20060;-52
2023/08/17 12:08:50;;;;;;;7.63;2.95;;;21.00;79.60;;;;;;5072584;28;20024;-51
2023/08/17 12:11:20;;;;;;;5.75;3.40;;;20.90;78.90;;;;;;5072404;28;20033;-52
2023/08/17 12:13:51;;;;;;;8.45;3.03;;;20.70;79.40;;;;;;5073631;28;20028;-55
2023/08/17 12:16:24;;;;;;;7.68;2.92;;;20.60;80.50;;;;;;5056745;28;20047;-56
2023/08/17 12:18:54;;;;;;;7.43;3.03;;;20.70;82.00;;;;;;5057576;28;20025;-51
2023/08/17 12:21:21;;;;;;;8.45;2.65;;;20.70;80.70;;;;;;5071748;28;20032;-51
2023/08/17 12:23:48;;;;;;;8.00;3.22;;;20.60;80.20;;;;;;5054195;28;20043;-50
2023/08/17 12:26:22;;;;;;;6.25;4.97;;;20.50;79.70;;;;;;5073190;28;20035;-51
2023/08/17 12:28:50;;;;;;;10.60;3.78;;;20.30;80.00;;;;;;5073351;28;20032;-53
2023/08/17 12:31:22;;;;;;;6.78;3.75;;;20.10;80.10;;;;;;5055683;28;20021;-55
2023/08/17 12:33:49;;;;;;;7.53;3.25;;;19.90;81.20;;;;;;5074214;28;20032;-52
2023/08/17 12:36:15;;;;;;;7.22;4.03;;;19.80;81.30;;;;;;5072825;28;20114;-56
2023/08/17 12:38:44;;;;;;;5.63;5.03;;;19.80;81.70;;;;;;5074122;28;20212;-54
2023/08/17 12:41:12;;;;;;;;;;;19.80;82.00;;;;;;5074695;28;20036;-52
2023/08/17 12:43:39;;;;;;;5.35;3.42;;;19.70;82.60;;;;;;5071295;28;19908;-54
2023/08/17 12:46:05;;;;;;;7.00;3.15;;;19.90;82.00;;;;;;5073071;28;20033;-53
2023/08/17 12:48:32;;;;;;;7.78;4.75;;;20.20;82.60;;;;;;5055901;28;20380;-51
2023/08/17 12:50:59;;;;;;;6.50;3.72;;;20.50;80.60;;;;;;5048491;28;20576;-53
2023/08/17 12:53:26;;;;;;;7.35;4.07;;;20.60;79.50;;;;;;5043782;28;20377;-54
2023/08/17 12:55:54;;;;;;;5.82;3.35;;;20.60;79.40;;;;;;5055236;28;20053;-53